createdAt,value
2023-03-03T00:01:30.708Z,27.63
2023-03-03T00:03:57.795Z,27.27
2023-03-03T00:06:25.016Z,25.88
2023-03-03T00:08:51.939Z,27.10
2023-03-03T00:11:18.896Z,27.63
2023-03-03T00:13:48.866Z,27.40
2023-03-03T00:16:18.700Z,27.42
2023-03-03T00:18:46.819Z,27.23
2023-03-03T00:21:20.501Z,28.23
2023-03-03T00:23:47.506Z,27.02
2023-03-03T00:26:22.841Z,26.13
2023-03-03T00:28:51.352Z,26.83
2023-03-03T00:31:20.535Z,27.88
2023-03-03T00:33:50.711Z,25.60
2023-03-03T00:36:28.795Z,25.92
2023-03-03T00:38:57.563Z,26.08
2023-03-03T00:41:25.690Z,25.55
2023-03-03T00:43:53.068Z,28.00
2023-03-03T00:46:21.324Z,26.02
2023-03-03T00:48:48.471Z,27.15
2023-03-03T00:51:31.508Z,28.13
2023-03-03T00:53:59.068Z,28.13
2023-03-03T00:56:26.215Z,28.02
2023-03-03T00:58:53.286Z,30.15
2023-03-03T01:01:22.774Z,29.67
2023-03-03T01:03:52.696Z,28.40
2023-03-03T01:06:19.525Z,29.20
2023-03-03T01:08:46.287Z,30.73
2023-03-03T01:11:16.248Z,28.02
2023-03-03T01:13:44.565Z,27.17
2023-03-03T01:16:12.201Z,28.80
2023-03-03T01:18:41.808Z,29.83
2023-03-03T01:21:09.128Z,28.55
2023-03-03T01:23:36.047Z,28.42
2023-03-03T01:26:03.268Z,27.83
2023-03-03T01:28:30.084Z,28.50
2023-03-03T01:31:00.968Z,27.98
2023-03-03T01:33:28.694Z,27.23
2023-03-03T01:35:55.597Z,28.05
2023-03-03T01:38:22.306Z,27.92
2023-03-03T01:40:59.801Z,27.83
2023-03-03T01:43:27.361Z,27.92
2023-03-03T01:45:57.640Z,27.52
2023-03-03T01:48:33.356Z,28.00
2023-03-03T01:51:02.553Z,26.48
2023-03-03T01:53:34.492Z,25.55
2023-03-03T01:56:02.203Z,26.00
2023-03-03T01:58:31.788Z,26.70
2023-03-03T02:01:00.859Z,26.23
2023-03-03T02:03:28.324Z,27.05
2023-03-03T02:05:57.139Z,46.58
2023-03-03T02:08:27.257Z,29.70
2023-03-03T02:10:54.929Z,29.52
2023-03-03T02:13:21.680Z,28.45
2023-03-03T02:15:48.649Z,29.52
2023-03-03T02:18:16.839Z,29.02
2023-03-03T02:20:49.720Z,29.17
2023-03-03T02:23:27.212Z,28.85
2023-03-03T02:25:59.104Z,28.35
2023-03-03T02:28:29.167Z,27.83
2023-03-03T02:30:57.221Z,28.52
2023-03-03T02:33:25.139Z,30.02
2023-03-03T02:35:52.368Z,30.85
2023-03-03T02:38:39.154Z,31.17
2023-03-03T02:41:11.672Z,27.73
2023-03-03T02:44:01.451Z,30.17
2023-03-03T02:46:32.593Z,29.83
2023-03-03T02:49:00.783Z,29.77
2023-03-03T02:51:27.674Z,30.30
2023-03-03T02:53:54.398Z,30.00
2023-03-03T02:56:21.350Z,28.65
2023-03-03T02:58:48.083Z,29.05
2023-03-03T03:01:14.900Z,30.33
2023-03-03T03:03:42.288Z,30.25
2023-03-03T03:06:09.464Z,30.42
2023-03-03T03:08:36.249Z,27.40
2023-03-03T03:11:03.671Z,27.67
2023-03-03T03:13:31.998Z,30.88
2023-03-03T03:15:59.576Z,30.83
2023-03-03T03:18:26.846Z,31.45
2023-03-03T03:20:55.798Z,29.05
2023-03-03T03:23:22.558Z,27.33
2023-03-03T03:25:49.602Z,25.08
2023-03-03T03:28:24.801Z,26.33
2023-03-03T03:30:52.004Z,25.98
2023-03-03T03:33:20.055Z,25.52
2023-03-03T03:35:47.726Z,28.05
2023-03-03T03:38:16.653Z,30.27
2023-03-03T03:40:44.557Z,30.40
2023-03-03T03:43:11.770Z,31.27
2023-03-03T03:45:39.036Z,28.00
2023-03-03T03:48:07.519Z,29.63
2023-03-03T03:50:34.390Z,29.55
2023-03-03T03:53:01.172Z,30.25
2023-03-03T03:55:28.136Z,29.60
2023-03-03T03:57:56.284Z,31.67
2023-03-03T04:00:23.567Z,28.98
2023-03-03T04:02:56.367Z,27.93
2023-03-03T04:05:23.902Z,30.00
2023-03-03T04:07:50.678Z,29.40
2023-03-03T04:10:19.439Z,31.13
2023-03-03T04:12:47.231Z,29.52
2023-03-03T04:15:15.296Z,29.50
2023-03-03T04:17:42.828Z,30.70
2023-03-03T04:20:15.314Z,27.88
2023-03-03T04:22:44.669Z,27.55
2023-03-03T04:25:15.648Z,30.77
2023-03-03T04:27:43.859Z,29.08
2023-03-03T04:30:13.697Z,27.35
2023-03-03T04:32:40.777Z,29.35
2023-03-03T04:35:10.264Z,28.08
2023-03-03T04:37:40.187Z,25.20
2023-03-03T04:40:08.960Z,25.88
2023-03-03T04:42:36.701Z,27.95
2023-03-03T04:45:04.735Z,24.63
2023-03-03T04:47:33.715Z,24.98
2023-03-03T04:50:01.016Z,25.10
2023-03-03T04:52:30.451Z,20.05
2023-03-03T04:54:57.558Z,22.67
2023-03-03T04:57:25.475Z,22.95
2023-03-03T04:59:53.299Z,23.05
2023-03-03T05:02:21.092Z,24.20
2023-03-03T05:04:48.678Z,22.98
2023-03-03T05:07:17.581Z,23.17
2023-03-03T05:09:44.467Z,24.05
2023-03-03T05:12:11.340Z,29.23
2023-03-03T05:14:38.036Z,28.65
2023-03-03T05:17:06.024Z,29.17
2023-03-03T05:19:34.868Z,31.40
2023-03-03T05:22:02.033Z,30.67
2023-03-03T05:24:28.996Z,24.50
2023-03-03T05:26:56.717Z,25.77
2023-03-03T05:29:23.469Z,32.70
2023-03-03T05:31:52.409Z,34.88
2023-03-03T05:34:19.136Z,40.17
2023-03-03T05:36:46.482Z,36.58
2023-03-03T05:39:13.236Z,35.08
2023-03-03T05:41:40.331Z,34.70
2023-03-03T05:44:07.364Z,34.67
2023-03-03T05:46:34.143Z,35.47
2023-03-03T05:49:01.175Z,32.50
2023-03-03T05:51:27.996Z,31.55
2023-03-03T05:53:56.473Z,30.98
2023-03-03T05:56:23.358Z,30.40
2023-03-03T05:58:52.324Z,30.42
2023-03-03T06:01:19.064Z,28.98
2023-03-03T06:03:45.930Z,24.58
2023-03-03T06:06:14.406Z,28.13
2023-03-03T06:08:41.277Z,26.13
2023-03-03T06:11:07.925Z,26.73
2023-03-03T06:13:35.048Z,24.23
2023-03-03T06:16:01.870Z,25.02
2023-03-03T06:18:28.761Z,22.05
2023-03-03T06:20:55.688Z,23.10
2023-03-03T06:23:22.758Z,21.08
2023-03-03T06:25:49.647Z,20.15
2023-03-03T06:28:18.947Z,21.92
2023-03-03T06:30:45.754Z,22.05
2023-03-03T06:33:12.490Z,21.90
2023-03-03T06:35:39.345Z,25.48
2023-03-03T06:38:06.368Z,22.95
2023-03-03T06:40:33.124Z,21.60
2023-03-03T06:42:59.830Z,22.05
2023-03-03T06:45:26.924Z,18.75
2023-03-03T06:47:53.874Z,18.90
2023-03-03T06:50:20.983Z,18.60
2023-03-03T06:52:48.064Z,19.25
2023-03-03T06:55:19.148Z,16.67
2023-03-03T06:57:45.855Z,17.75
2023-03-03T07:00:20.893Z,17.45
2023-03-03T07:02:53.903Z,18.23
2023-03-03T07:05:21.704Z,16.77
2023-03-03T07:07:48.477Z,16.70
2023-03-03T07:10:19.182Z,19.80
2023-03-03T07:12:48.520Z,17.50
2023-03-03T07:15:38.403Z,18.65
2023-03-03T07:18:12.278Z,17.10
2023-03-03T07:20:40.055Z,18.13
2023-03-03T07:23:20.857Z,18.63
2023-03-03T07:25:54.139Z,21.17
2023-03-03T07:28:29.292Z,21.98
2023-03-03T07:30:58.085Z,20.83
2023-03-03T07:33:50.453Z,19.63
2023-03-03T07:36:31.449Z,18.38
2023-03-03T07:39:01.065Z,24.55
2023-03-03T07:41:28.833Z,24.13
2023-03-03T07:44:01.555Z,26.48
2023-03-03T07:46:48.852Z,25.57
2023-03-03T07:49:29.331Z,24.52
2023-03-03T07:52:06.080Z,26.75
2023-03-03T07:54:59.520Z,25.35
2023-03-03T07:57:43.070Z,27.90
2023-03-03T08:00:17.112Z,36.65
2023-03-03T08:05:29.594Z,29.52
2023-03-03T08:08:17.834Z,28.50
2023-03-03T08:10:48.442Z,27.58
2023-03-03T08:15:52.295Z,27.15
2023-03-03T08:18:30.583Z,26.80
2023-03-03T08:20:58.614Z,27.45
2023-03-03T08:23:26.124Z,26.60
2023-03-03T08:25:54.169Z,27.40
2023-03-03T08:28:21.719Z,27.38
2023-03-03T08:30:49.273Z,27.10
2023-03-03T08:33:16.603Z,26.30
2023-03-03T08:35:43.725Z,27.15
2023-03-03T08:38:16.880Z,27.80
2023-03-03T08:40:51.653Z,26.90
2023-03-03T08:43:22.898Z,26.98
2023-03-03T08:45:50.866Z,27.70
2023-03-03T08:48:18.529Z,27.30
2023-03-03T08:50:46.310Z,26.77
2023-03-03T08:53:14.717Z,26.05
2023-03-03T08:55:42.374Z,26.55
2023-03-03T08:58:09.788Z,27.85
2023-03-03T09:00:37.077Z,26.88
2023-03-03T09:03:07.301Z,26.85
2023-03-03T09:05:35.512Z,25.83
2023-03-03T09:08:02.432Z,28.35
2023-03-03T09:10:30.899Z,28.23
2023-03-03T09:13:02.119Z,26.23
2023-03-03T09:15:38.052Z,25.60
2023-03-03T09:18:26.162Z,25.83
2023-03-03T09:20:53.678Z,25.70
2023-03-03T09:23:33.804Z,24.67
2023-03-03T09:26:13.287Z,25.35
2023-03-03T09:28:40.037Z,25.00
2023-03-03T09:31:18.697Z,25.30
2023-03-03T09:33:46.830Z,25.67
2023-03-03T09:36:27.600Z,25.45
2023-03-03T09:38:55.881Z,25.92
2023-03-03T09:41:26.106Z,24.52
2023-03-03T09:43:57.486Z,23.95
2023-03-03T09:46:27.769Z,24.77
2023-03-03T09:49:09.983Z,26.10
2023-03-03T09:52:00.345Z,24.95
2023-03-03T09:54:43.270Z,26.75
2023-03-03T09:57:10.141Z,23.75
2023-03-03T09:59:55.139Z,24.67
2023-03-03T10:02:41.010Z,24.42
2023-03-03T10:05:14.543Z,25.48
2023-03-03T10:08:00.087Z,24.67
2023-03-03T10:10:46.074Z,26.15
2023-03-03T10:13:21.698Z,26.17
2023-03-03T10:16:07.490Z,27.65
2023-03-03T10:19:01.096Z,26.42
2023-03-03T10:21:34.112Z,25.80
2023-03-03T10:24:09.897Z,25.45
2023-03-03T10:26:45.125Z,27.45
2023-03-03T10:29:22.068Z,26.40
2023-03-03T10:32:06.816Z,25.75
2023-03-03T10:34:40.043Z,26.83
2023-03-03T10:37:19.237Z,25.42
2023-03-03T10:40:00.929Z,26.35
2023-03-03T10:42:56.098Z,25.73
2023-03-03T10:45:43.018Z,27.00
2023-03-03T10:48:23.322Z,26.20
2023-03-03T10:50:50.207Z,26.85
2023-03-03T10:53:32.120Z,26.77
2023-03-03T10:56:14.388Z,26.05
2023-03-03T10:58:59.848Z,27.60
2023-03-03T11:01:45.254Z,27.20
2023-03-03T11:04:25.743Z,30.45
2023-03-03T11:06:55.426Z,30.23
2023-03-03T11:09:30.783Z,28.85
2023-03-03T11:12:07.047Z,27.38
2023-03-03T11:14:53.189Z,27.70
2023-03-03T11:17:36.554Z,28.38
2023-03-03T11:20:18.082Z,29.45
2023-03-03T11:22:52.629Z,29.75
2023-03-03T11:26:00.329Z,27.55
2023-03-03T11:29:18.817Z,27.25
2023-03-03T11:31:45.697Z,28.70
2023-03-03T11:34:15.625Z,29.60
2023-03-03T11:36:49.580Z,28.35
2023-03-03T11:39:20.263Z,27.45
2023-03-03T11:41:50.310Z,22.02
2023-03-03T11:44:22.368Z,24.70
2023-03-03T11:46:54.461Z,24.98
2023-03-03T11:49:33.528Z,23.77
2023-03-03T11:52:03.379Z,24.58
2023-03-03T11:54:36.604Z,25.33
2023-03-03T11:57:23.321Z,25.60
2023-03-03T12:00:10.957Z,23.90
2023-03-03T12:03:07.142Z,23.67
2023-03-03T12:05:40.342Z,25.17
2023-03-03T12:09:05.134Z,26.52
2023-03-03T12:11:56.671Z,23.27
2023-03-03T12:14:46.985Z,21.35
2023-03-03T12:17:14.317Z,22.08
2023-03-03T12:19:44.081Z,21.30
2023-03-03T12:22:22.453Z,21.50
2023-03-03T12:24:52.946Z,20.00
2023-03-03T12:27:27.763Z,19.92
2023-03-03T12:30:10.734Z,16.25
2023-03-03T12:32:48.069Z,15.77
2023-03-03T12:35:24.140Z,15.63
2023-03-03T12:38:09.968Z,17.92
2023-03-03T12:40:41.512Z,17.63
2023-03-03T12:43:11.505Z,17.45
2023-03-03T12:45:44.784Z,17.08
2023-03-03T12:48:27.580Z,16.27
2023-03-03T12:51:00.969Z,15.73
2023-03-03T12:53:28.006Z,15.45
2023-03-03T12:56:01.753Z,15.57
2023-03-03T12:58:45.023Z,15.15
2023-03-03T13:01:31.517Z,14.65
2023-03-03T13:04:02.146Z,14.27
2023-03-03T13:06:55.755Z,14.35
2023-03-03T13:09:32.844Z,13.43
2023-03-03T13:12:08.777Z,14.07
2023-03-03T13:14:52.829Z,14.68
2023-03-03T13:17:29.401Z,15.43
2023-03-03T13:20:01.191Z,14.77
2023-03-03T13:22:29.028Z,13.90
2023-03-03T13:24:56.248Z,14.18
2023-03-03T13:27:25.672Z,12.82
2023-03-03T13:29:58.440Z,11.63
2023-03-03T13:32:32.069Z,14.10
2023-03-03T13:37:36.230Z,13.52
2023-03-03T13:40:10.613Z,13.73
2023-03-03T13:42:43.017Z,12.82
2023-03-03T13:45:28.989Z,12.55
2023-03-03T13:48:14.583Z,12.00
2023-03-03T13:50:47.466Z,11.38
2023-03-03T13:53:17.938Z,11.60
2023-03-03T13:55:51.138Z,12.52
2023-03-03T13:58:38.768Z,12.77
2023-03-03T14:01:29.017Z,13.13
2023-03-03T14:04:08.647Z,12.30
2023-03-03T14:06:37.906Z,13.77
2023-03-03T14:09:23.572Z,13.30
2023-03-03T14:11:57.716Z,11.35
2023-03-03T14:14:37.960Z,12.88
2023-03-03T14:17:20.816Z,11.53
2023-03-03T14:20:03.654Z,11.77
2023-03-03T14:22:50.013Z,12.07
2023-03-03T14:25:17.617Z,13.43
2023-03-03T14:27:44.963Z,13.38
2023-03-03T14:30:37.165Z,12.40
2023-03-03T14:33:11.076Z,12.48
2023-03-03T14:35:52.327Z,12.75
2023-03-03T14:38:23.392Z,12.82
2023-03-03T14:41:05.119Z,11.43
2023-03-03T14:46:20.297Z,11.93
2023-03-03T14:48:54.797Z,12.35
2023-03-03T14:51:29.525Z,12.95
2023-03-03T14:54:08.817Z,11.60
2023-03-03T14:56:39.770Z,11.20
2023-03-03T14:59:18.456Z,12.68
2023-03-03T15:01:46.723Z,11.60
2023-03-03T15:04:14.451Z,13.25
2023-03-03T15:06:43.108Z,12.07
2023-03-03T15:09:29.916Z,13.60
2023-03-03T15:11:57.705Z,13.00
2023-03-03T15:14:40.148Z,14.02
2023-03-03T15:17:26.748Z,14.30
2023-03-03T15:20:05.997Z,13.63
2023-03-03T15:22:36.236Z,14.00
2023-03-03T15:25:22.809Z,12.52
2023-03-03T15:27:52.535Z,13.07
2023-03-03T15:30:38.298Z,13.07
2023-03-03T15:33:07.554Z,14.15
2023-03-03T15:35:49.266Z,12.75
2023-03-03T15:38:25.353Z,13.73
2023-03-03T15:41:01.643Z,14.30
2023-03-03T15:43:36.088Z,13.50
2023-03-03T15:46:06.402Z,14.10
2023-03-03T15:48:42.654Z,13.52
2023-03-03T15:51:35.958Z,14.63
2023-03-03T15:54:05.644Z,13.95
2023-03-03T15:56:48.012Z,15.35
2023-03-03T15:59:21.674Z,15.25
2023-03-03T16:01:51.636Z,16.45
2023-03-03T16:04:20.999Z,16.77
2023-03-03T16:06:57.671Z,15.23
2023-03-03T16:09:33.746Z,16.55
2023-03-03T16:12:10.117Z,16.40
2023-03-03T16:14:54.962Z,15.65
2023-03-03T16:17:33.474Z,17.15
2023-03-03T16:20:02.874Z,15.40
2023-03-03T16:22:42.484Z,15.63
2023-03-03T16:25:30.060Z,16.65
2023-03-03T16:28:01.234Z,16.17
2023-03-03T16:30:32.091Z,18.45
2023-03-03T16:33:18.377Z,17.77
2023-03-03T16:36:11.789Z,16.45
2023-03-03T16:38:40.227Z,14.80
2023-03-03T16:41:21.334Z,15.45
2023-03-03T16:44:01.912Z,16.88
2023-03-03T16:46:36.040Z,15.32
2023-03-03T16:49:03.828Z,18.17
2023-03-03T16:51:37.576Z,18.20
2023-03-03T16:54:20.846Z,17.80
2023-03-03T16:57:01.396Z,19.80
2023-03-03T16:59:34.051Z,18.50
2023-03-03T17:02:14.393Z,18.80
2023-03-03T17:04:49.090Z,17.98
2023-03-03T17:07:19.228Z,18.58
2023-03-03T17:10:03.163Z,17.20
2023-03-03T17:15:03.641Z,15.70
2023-03-03T17:17:37.940Z,17.48
2023-03-03T17:20:15.314Z,18.80
2023-03-03T17:23:13.920Z,18.17
2023-03-03T17:25:52.066Z,18.33
2023-03-03T17:28:28.131Z,17.42
2023-03-03T17:31:22.192Z,19.63
2023-03-03T17:33:58.195Z,18.88
2023-03-03T17:36:33.519Z,21.15
2023-03-03T17:39:06.518Z,19.02
2023-03-03T17:41:51.876Z,19.38
2023-03-03T17:44:27.966Z,18.98
2023-03-03T17:47:23.992Z,19.08
2023-03-03T17:50:08.734Z,18.23
2023-03-03T17:52:53.690Z,18.73
2023-03-03T17:55:26.494Z,18.00
2023-03-03T17:58:08.913Z,20.30
2023-03-03T18:01:01.975Z,18.92
2023-03-03T18:03:42.483Z,20.58
2023-03-03T18:06:28.094Z,26.35
2023-03-03T18:09:14.902Z,21.02
2023-03-03T18:12:01.050Z,23.48
2023-03-03T18:14:39.961Z,19.88
2023-03-03T18:20:18.683Z,23.00
2023-03-03T18:22:46.810Z,19.55
2023-03-03T18:25:29.222Z,19.00
2023-03-03T18:28:18.445Z,20.75
2023-03-03T18:30:55.535Z,20.85
2023-03-03T18:33:40.929Z,20.45
2023-03-03T18:36:11.102Z,21.02
2023-03-03T18:38:38.905Z,21.65
2023-03-03T18:41:09.653Z,21.27
2023-03-03T18:43:45.583Z,20.92
2023-03-03T18:46:25.192Z,20.95
2023-03-03T18:48:54.676Z,22.23
2023-03-03T18:51:39.838Z,20.45
2023-03-03T18:54:12.989Z,27.90
2023-03-03T18:56:46.359Z,18.77
2023-03-03T18:59:31.773Z,20.45
2023-03-03T19:02:13.763Z,20.38
2023-03-03T19:04:41.634Z,21.88
2023-03-03T19:07:16.432Z,24.52
2023-03-03T19:10:03.789Z,24.52
2023-03-03T19:12:51.560Z,22.00
2023-03-03T19:15:36.625Z,23.58
2023-03-03T19:18:05.013Z,22.38
2023-03-03T19:20:39.376Z,25.55
2023-03-03T19:23:08.204Z,27.88
2023-03-03T19:25:35.804Z,27.67
2023-03-03T19:28:06.564Z,27.30
2023-03-03T19:30:36.362Z,25.15
2023-03-03T19:33:10.127Z,52.53
2023-03-03T19:35:56.076Z,22.38
2023-03-03T19:38:23.257Z,22.88
2023-03-03T19:41:00.832Z,24.02
2023-03-03T19:43:47.733Z,23.17
2023-03-03T19:46:14.765Z,20.77
2023-03-03T19:49:02.570Z,21.90
2023-03-03T19:51:50.642Z,22.00
2023-03-03T19:54:21.896Z,23.15
2023-03-03T19:56:58.262Z,25.95
2023-03-03T19:59:46.966Z,26.33
2023-03-03T20:02:14.092Z,29.42
2023-03-03T20:04:56.258Z,27.52
2023-03-03T20:07:31.277Z,30.58
2023-03-03T20:10:26.305Z,26.42
2023-03-03T20:13:03.728Z,28.85
2023-03-03T20:15:37.182Z,27.20
2023-03-03T20:18:22.820Z,23.20
2023-03-03T20:21:04.755Z,23.90
2023-03-03T20:23:49.658Z,26.30
2023-03-03T20:26:21.625Z,23.98
2023-03-03T20:28:48.539Z,23.30
2023-03-03T20:31:33.576Z,20.35
2023-03-03T20:34:00.348Z,21.00
2023-03-03T20:36:36.114Z,21.30
2023-03-03T20:39:06.493Z,21.65
2023-03-03T20:41:48.539Z,20.85
2023-03-03T20:44:40.154Z,22.08
2023-03-03T20:47:07.201Z,20.48
2023-03-03T20:49:44.686Z,21.83
2023-03-03T20:52:17.118Z,32.88
2023-03-03T20:54:47.127Z,24.92
2023-03-03T20:57:34.024Z,21.73
2023-03-03T21:00:04.427Z,18.92
2023-03-03T21:02:49.199Z,19.10
2023-03-03T21:05:22.433Z,17.65
2023-03-03T21:07:57.080Z,18.10
2023-03-03T21:10:25.139Z,21.02
2023-03-03T21:12:53.240Z,24.65
2023-03-03T21:15:24.945Z,26.42
2023-03-03T21:17:51.862Z,23.48
2023-03-03T21:20:29.836Z,22.40
2023-03-03T21:22:57.606Z,24.48
2023-03-03T21:25:42.826Z,28.77
2023-03-03T21:28:32.788Z,37.03
2023-03-03T21:31:11.779Z,29.77
2023-03-03T21:33:41.360Z,35.58
2023-03-03T21:36:08.788Z,35.95
2023-03-03T21:38:39.009Z,35.75
2023-03-03T21:41:06.788Z,31.75
2023-03-03T21:43:35.174Z,33.80
2023-03-03T21:46:02.204Z,32.65
2023-03-03T21:48:30.025Z,32.55
2023-03-03T21:50:56.980Z,32.67
2023-03-03T21:53:24.199Z,31.92
2023-03-03T21:55:51.096Z,27.83
2023-03-03T21:58:17.910Z,25.58
2023-03-03T22:00:45.058Z,27.23
2023-03-03T22:03:12.096Z,29.83
2023-03-03T22:05:39.024Z,26.75
2023-03-03T22:08:05.964Z,27.17
2023-03-03T22:10:32.743Z,25.50
2023-03-03T22:12:59.625Z,25.55
2023-03-03T22:15:27.782Z,26.08
2023-03-03T22:17:54.610Z,23.75
2023-03-03T22:20:21.506Z,24.13
2023-03-03T22:22:48.326Z,24.02
2023-03-03T22:25:15.176Z,25.52
2023-03-03T22:27:42.117Z,21.95
2023-03-03T22:30:09.127Z,21.52
2023-03-03T22:32:35.846Z,21.95
2023-03-03T22:35:02.699Z,20.33
2023-03-03T22:37:29.784Z,19.23
2023-03-03T22:39:56.504Z,19.73
2023-03-03T22:42:25.043Z,19.88
2023-03-03T22:44:51.715Z,19.35
2023-03-03T22:47:18.401Z,20.52
2023-03-03T22:49:45.198Z,18.40
2023-03-03T22:52:11.919Z,17.85
2023-03-03T22:54:38.692Z,19.30
2023-03-03T22:57:05.385Z,21.38
2023-03-03T22:59:32.741Z,20.80
2023-03-03T23:02:00.684Z,19.30
2023-03-03T23:04:27.471Z,21.88
2023-03-03T23:06:54.265Z,21.23
2023-03-03T23:09:20.946Z,21.60
2023-03-03T23:11:47.650Z,24.60
2023-03-03T23:14:14.719Z,22.85
2023-03-03T23:16:41.454Z,20.63
2023-03-03T23:19:08.331Z,21.52
2023-03-03T23:21:35.076Z,21.05
2023-03-03T23:24:01.853Z,20.83
2023-03-03T23:26:28.652Z,24.60
2023-03-03T23:28:55.409Z,20.75
2023-03-03T23:31:22.184Z,21.70
2023-03-03T23:33:48.997Z,20.77
2023-03-03T23:36:15.683Z,22.05
2023-03-03T23:38:43.272Z,26.08
2023-03-03T23:41:10.076Z,25.70
2023-03-03T23:43:36.872Z,26.00
2023-03-03T23:46:03.774Z,24.80
2023-03-03T23:48:30.461Z,23.08
2023-03-03T23:50:57.137Z,23.15
2023-03-03T23:53:23.850Z,23.15
2023-03-03T23:55:50.600Z,23.52
2023-03-03T23:58:17.315Z,23.60
